Terminal Aerodrome Forecast
Issued by NWS

Home | Current Version | Previous Version | Text Only | Print | Product List | Glossary On
Versions: 1 2 3 4 5 6 7 8 9 10 11 12 13 14 15
000
FTUS44 KTSA 230520
TAFXNA
TAF
KXNA 230520Z 2306/2406 01014KT P6SM OVC010
     FM231200 32005KT P6SM OVC015
     FM231800 31005KT P6SM SCT250
     FM240000 00000KT P6SM FEW250=

USA.gov is the U.S. government's official web portal to all federal, state and local government web resources and services.